St Lucie County International Airport Fort Pierce US
ICAO: KFPR
IATA: FPR
Category: Medium
Scheduled Services: No

Elevation: 24 ft
TransAlt. 18000 ft.

Airport Communications:
ATIS:134.825
MIAMI CNTR:132.25
CTAF:128.2
GND:119.55
MIAMI RDO:122.55
FORT PIERCE TWR:128.2

KFPR Zoom In..

Runways:

(A) RW 10L length 4000 ft width 75 ft
---- / hdg 97

(B) RW 10R length 6492 ft width 150 ft
ILS 110.55 / hdg 97

(C) RW 14 length 4755 ft width 100 ft
---- / hdg 142

(D) RW 28L length 6492 ft width 150 ft
---- / hdg 277

(E) RW 28R length 4000 ft width 75 ft
---- / hdg 277

(F) RW 32 length 4755 ft width 100 ft
---- / hdg 322

Location; KFPR
Day. 20 / Time. 16.53 Zulu
* Altimeter: 30.09
* Temperature: 26° c. 78.8°f.
* Wind from: 130° Speed 10 kn.
Dewpoint: 24° c.
Visibility: 10 Statute Miles.
Clouds: Broken 2700 ft.
Clouds: Broken 3600 ft.
Clouds: Overcast 4900 ft.

KFPR 201653Z 13010KT 10SM BKN027 BKN036 OVC049 26/24 A3009 RMK AO2 RAE32 SLP189 P0001 T02610239


Wind From 130°
Speed 10 kn.

 
 
jpsmedia.com for Web Design SOUNDCLOUD worldairports.se 2018   terms of use